createdAt,value
2018-06-13T04:08:20.321Z,9.60
2018-06-13T04:10:58.076Z,11.93
2018-06-13T04:13:30.382Z,8.47
2018-06-13T04:16:02.959Z,12.27
2018-06-13T04:18:42.222Z,8.60
2018-06-13T04:21:50.024Z,9.93
2018-06-13T04:24:35.262Z,7.87
2018-06-13T04:27:10.342Z,13.10
2018-06-13T04:29:47.046Z,10.57
2018-06-13T04:32:33.704Z,10.37
2018-06-13T04:35:16.942Z,17.43
2018-06-13T04:37:47.891Z,9.07
2018-06-13T04:40:28.606Z,9.23
2018-06-13T04:43:10.744Z,10.40
2018-06-13T04:45:43.092Z,8.13
2018-06-13T04:48:20.621Z,9.40
2018-06-13T04:50:52.412Z,9.50
2018-06-13T04:53:22.501Z,11.47
2018-06-13T04:55:53.323Z,12.30
2018-06-13T04:58:24.210Z,12.77
2018-06-13T05:00:54.649Z,11.07
2018-06-13T05:03:24.800Z,9.47
2018-06-13T05:05:55.588Z,14.93
2018-06-13T05:08:26.449Z,12.23
2018-06-13T05:10:56.953Z,14.20
2018-06-13T05:13:27.066Z,10.90
2018-06-13T05:15:59.196Z,7.67
2018-06-13T05:18:29.434Z,15.47
2018-06-13T05:20:59.554Z,14.20
2018-06-13T05:23:30.516Z,9.90
2018-06-13T05:26:00.889Z,14.40
2018-06-13T05:28:30.989Z,13.63
2018-06-13T05:31:01.787Z,8.20
2018-06-13T05:33:36.747Z,11.63
2018-06-13T05:36:07.226Z,10.93
2018-06-13T05:38:37.285Z,12.90
2018-06-13T05:41:07.837Z,9.20
2018-06-13T05:43:37.951Z,7.73
2018-06-13T05:46:07.848Z,9.23
2018-06-13T05:48:38.345Z,12.40
2018-06-13T05:51:18.826Z,10.00
2018-06-13T05:53:49.269Z,10.00
2018-06-13T05:56:20.142Z,6.63
2018-06-13T05:58:52.015Z,9.27
2018-06-13T06:01:23.145Z,10.33
2018-06-13T06:03:54.299Z,10.37
2018-06-13T06:06:27.178Z,8.73
2018-06-13T06:08:57.979Z,10.10
2018-06-13T06:11:30.208Z,5.83
2018-06-13T06:14:03.903Z,11.47
2018-06-13T06:16:36.489Z,9.23
2018-06-13T06:19:06.625Z,6.20
2018-06-13T06:21:49.348Z,13.30
2018-06-13T06:24:20.060Z,6.73
2018-06-13T06:26:51.177Z,10.77
2018-06-13T06:29:22.307Z,7.00
2018-06-13T06:31:52.831Z,8.93
2018-06-13T06:34:23.624Z,10.10
2018-06-13T06:36:54.149Z,7.97
2018-06-13T06:39:24.304Z,8.30
2018-06-13T06:41:54.774Z,5.77
2018-06-13T06:44:24.897Z,10.03
2018-06-13T06:46:55.679Z,8.00
2018-06-13T06:49:26.229Z,7.40
2018-06-13T06:51:57.050Z,10.97
2018-06-13T06:54:28.084Z,10.47
2018-06-13T06:56:58.911Z,8.30
2018-06-13T06:59:29.612Z,10.57
2018-06-13T07:01:59.628Z,10.83
2018-06-13T07:04:30.098Z,7.80
2018-06-13T07:07:00.246Z,11.20
2018-06-13T07:09:30.759Z,8.33
2018-06-13T07:12:00.804Z,8.47
2018-06-13T07:14:33.384Z,6.27
2018-06-13T07:17:04.209Z,6.17
2018-06-13T07:19:49.356Z,7.30
2018-06-13T07:22:20.016Z,10.50
2018-06-13T07:24:50.442Z,6.70
2018-06-13T07:27:21.537Z,11.00
2018-06-13T07:29:53.492Z,8.37
2018-06-13T07:32:24.308Z,9.53
2018-06-13T07:34:55.415Z,8.40
2018-06-13T07:37:29.728Z,5.23
2018-06-13T07:40:00.847Z,5.10
2018-06-13T07:42:32.149Z,6.10
2018-06-13T07:45:02.713Z,6.97
2018-06-13T07:47:33.256Z,7.20
2018-06-13T07:50:03.344Z,12.73
2018-06-13T07:52:34.481Z,9.13
2018-06-13T07:55:04.679Z,5.77
2018-06-13T07:57:35.505Z,6.47
2018-06-13T08:00:07.650Z,12.47
2018-06-13T08:02:38.164Z,6.47
2018-06-13T08:05:09.249Z,6.00
2018-06-13T08:07:41.075Z,5.83
2018-06-13T08:10:11.596Z,5.00
2018-06-13T08:12:41.724Z,4.87
2018-06-13T08:15:12.205Z,7.87
2018-06-13T08:17:43.333Z,4.77
2018-06-13T08:20:13.283Z,6.20
2018-06-13T08:22:44.123Z,4.43
2018-06-13T08:25:14.467Z,8.03
2018-06-13T08:27:52.352Z,9.63
2018-06-13T08:30:23.631Z,5.73
2018-06-13T08:32:54.007Z,6.97
2018-06-13T08:35:24.803Z,5.90
2018-06-13T08:37:55.904Z,13.00
2018-06-13T08:40:26.654Z,6.30
2018-06-13T08:42:57.851Z,11.43
2018-06-13T08:45:28.042Z,6.40
2018-06-13T08:48:05.165Z,8.20
2018-06-13T08:50:36.647Z,6.33
2018-06-13T08:53:07.596Z,7.40
2018-06-13T08:55:38.416Z,4.63
2018-06-13T08:58:10.408Z,7.73
2018-06-13T09:00:43.416Z,8.13
2018-06-13T09:03:13.925Z,5.97
2018-06-13T09:05:59.097Z,8.53
2018-06-13T09:08:29.685Z,9.60
2018-06-13T09:11:02.709Z,6.73
2018-06-13T09:13:33.330Z,10.77
2018-06-13T09:16:04.163Z,7.47
2018-06-13T09:18:38.298Z,6.77
2018-06-13T09:21:09.079Z,5.20
2018-06-13T09:23:42.611Z,9.10
2018-06-13T09:26:13.764Z,5.93
2018-06-13T09:28:48.347Z,5.03
2018-06-13T09:31:20.524Z,10.53
2018-06-13T09:33:55.039Z,9.63
2018-06-13T09:36:25.863Z,12.53
2018-06-13T09:44:18.459Z,5.07
2018-06-13T09:46:51.411Z,7.37
2018-06-13T09:49:22.883Z,7.07
2018-06-13T09:51:53.969Z,8.93
2018-06-13T09:54:31.766Z,7.60
2018-06-13T09:57:03.088Z,5.47
2018-06-13T09:59:45.607Z,8.20
2018-06-13T10:02:37.095Z,10.13
2018-06-13T10:07:10.241Z,5.07
2018-06-13T10:09:43.006Z,8.90
2018-06-13T10:12:24.109Z,7.83
2018-06-13T10:14:59.326Z,2.83
2018-06-13T10:17:43.983Z,4.80
2018-06-13T10:20:20.565Z,6.93
2018-06-13T10:22:51.722Z,5.30
2018-06-13T10:25:24.276Z,6.20
2018-06-13T10:27:56.273Z,6.20
2018-06-13T10:30:28.401Z,8.07
2018-06-13T10:32:58.756Z,3.93
2018-06-13T10:35:31.888Z,6.50
2018-06-13T10:38:03.067Z,8.10
2018-06-13T10:40:34.075Z,5.43
2018-06-13T10:43:08.240Z,3.97
2018-06-13T10:45:43.241Z,6.77
2018-06-13T10:48:14.709Z,2.67
2018-06-13T10:50:46.747Z,7.90
2018-06-13T10:53:25.797Z,3.30
2018-06-13T10:55:59.237Z,6.80
2018-06-13T10:58:30.182Z,4.47
2018-06-13T11:01:02.326Z,4.13
2018-06-13T11:03:37.202Z,7.70
2018-06-13T11:06:08.865Z,5.20
2018-06-13T11:08:43.147Z,5.30
2018-06-13T11:11:17.179Z,6.53
2018-06-13T11:13:52.416Z,6.17
2018-06-13T11:16:31.189Z,7.40
2018-06-13T11:22:05.007Z,8.13
2018-06-13T11:24:41.066Z,4.30
2018-06-13T11:27:14.241Z,3.87
2018-06-13T11:29:49.987Z,7.07
2018-06-13T11:32:20.893Z,6.87
2018-06-13T11:35:02.398Z,5.33
2018-06-13T11:37:36.270Z,6.40
2018-06-13T11:40:07.664Z,9.80
2018-06-13T11:42:42.040Z,5.40
2018-06-13T11:45:13.041Z,7.90
2018-06-13T11:47:55.304Z,5.67
2018-06-13T11:50:35.777Z,5.00
2018-06-13T11:55:49.304Z,8.93
2018-06-13T11:58:32.021Z,7.07
2018-06-13T12:01:18.187Z,4.27
2018-06-13T12:03:49.186Z,4.67
2018-06-13T12:06:22.647Z,4.77
2018-06-13T12:08:53.983Z,4.10
2018-06-13T12:11:33.536Z,8.80
2018-06-13T12:14:05.735Z,6.30
2018-06-13T12:16:37.996Z,5.40
2018-06-13T12:25:54.050Z,5.40
2018-06-13T12:28:29.110Z,4.90
2018-06-13T12:34:00.060Z,9.10
2018-06-13T12:36:50.645Z,8.60
2018-06-13T12:39:21.775Z,8.90
2018-06-13T12:51:53.276Z,5.60
2018-06-13T12:54:56.813Z,8.40
2018-06-13T14:00:40.341Z,7.53
2018-06-13T14:03:20.739Z,4.00
2018-06-13T15:49:07.046Z,7.03
2018-06-13T15:52:00.133Z,8.23
2018-06-13T15:54:37.546Z,4.57
2018-06-13T15:57:09.576Z,6.23
2018-06-13T15:59:48.317Z,4.20
2018-06-13T16:02:23.743Z,7.07
2018-06-13T16:04:57.203Z,4.73
2018-06-13T16:07:50.275Z,5.43
2018-06-13T16:13:19.281Z,4.10
2018-06-13T16:16:02.636Z,9.80
2018-06-13T16:18:33.308Z,8.33
2018-06-13T16:21:03.830Z,6.53
2018-06-13T16:23:36.482Z,6.30
2018-06-13T16:26:11.288Z,11.83
2018-06-13T16:28:42.257Z,3.47
2018-06-13T16:31:27.704Z,5.53
2018-06-13T16:34:00.793Z,4.70
2018-06-13T16:39:17.350Z,2.80
2018-06-13T16:41:53.123Z,2.77
2018-06-13T16:44:23.941Z,3.60
2018-06-13T16:47:02.837Z,5.47
2018-06-13T16:52:37.105Z,9.30
2018-06-13T16:55:35.720Z,4.60
2018-06-13T16:58:13.655Z,5.23
2018-06-13T17:03:33.926Z,7.30
2018-06-13T17:06:11.788Z,4.60
2018-06-13T17:08:42.523Z,9.93
2018-06-13T17:11:19.131Z,3.27
2018-06-13T17:14:00.888Z,7.27
2018-06-13T17:16:39.079Z,3.87
2018-06-13T17:19:11.812Z,7.67
2018-06-13T17:21:57.815Z,3.83
2018-06-13T17:24:31.672Z,3.07
2018-06-13T17:27:03.681Z,2.67
2018-06-13T17:29:40.334Z,2.37
2018-06-13T17:32:12.159Z,2.60
2018-06-13T17:34:44.508Z,5.40
2018-06-13T17:37:20.328Z,2.57
2018-06-13T17:39:50.172Z,3.07
2018-06-13T17:42:19.767Z,2.07
2018-06-13T17:44:50.279Z,3.70
2018-06-13T17:47:22.437Z,1.60
2018-06-13T17:50:02.281Z,4.00
2018-06-13T17:52:32.869Z,2.40
2018-06-13T17:55:04.964Z,2.30
2018-06-13T17:57:36.244Z,1.67
2018-06-13T18:00:06.516Z,2.40
2018-06-13T18:02:38.116Z,1.83
2018-06-13T18:05:08.198Z,1.43
2018-06-13T18:07:38.844Z,2.80
2018-06-13T18:10:09.787Z,2.80
2018-06-13T18:12:39.621Z,2.50
2018-06-13T18:15:09.424Z,5.57
2018-06-13T18:17:42.025Z,3.07
2018-06-13T18:20:12.132Z,4.53
2018-06-13T18:22:42.848Z,3.73
2018-06-13T18:25:15.750Z,2.03
2018-06-13T18:27:48.605Z,1.00
2018-06-13T18:30:18.375Z,1.80
2018-06-13T18:32:48.197Z,4.60
2018-06-13T18:35:17.953Z,7.10
2018-06-13T18:37:48.265Z,1.40
2018-06-13T18:40:18.552Z,1.17
2018-06-13T18:42:48.899Z,3.67
2018-06-13T18:45:20.203Z,1.10
2018-06-13T18:47:52.181Z,1.57
2018-06-13T18:50:21.843Z,2.20
2018-06-13T18:52:53.127Z,1.17
2018-06-13T18:55:24.373Z,1.50
2018-06-13T18:57:55.045Z,1.97
2018-06-13T19:00:25.068Z,1.93
2018-06-13T19:02:54.867Z,2.10
2018-06-13T19:05:24.620Z,1.57
2018-06-13T19:07:54.397Z,2.80
2018-06-13T19:10:24.265Z,1.47
2018-06-13T19:12:55.092Z,2.27
2018-06-13T19:15:24.863Z,1.43
2018-06-13T19:17:54.620Z,3.00
2018-06-13T19:20:24.439Z,2.10
2018-06-13T19:22:54.314Z,1.20
2018-06-13T19:25:24.048Z,2.80
2018-06-13T19:27:54.408Z,1.20
2018-06-13T19:30:25.570Z,1.83
2018-06-13T19:32:55.522Z,1.17
2018-06-13T19:35:25.959Z,1.00
2018-06-13T19:37:57.056Z,0.90
2018-06-13T19:40:27.655Z,1.67
2018-06-13T19:42:57.655Z,1.43
2018-06-13T19:45:27.439Z,1.10
2018-06-13T19:48:02.297Z,0.83
2018-06-13T19:50:32.816Z,2.27
2018-06-13T19:53:08.916Z,1.10
2018-06-13T19:55:43.846Z,2.03
2018-06-13T19:58:13.440Z,2.40
2018-06-13T20:00:42.460Z,1.20
2018-06-13T20:03:16.522Z,4.10
2018-06-13T20:05:46.043Z,1.03
2018-06-13T20:08:15.303Z,1.10
2018-06-13T20:10:45.663Z,1.27
2018-06-13T20:13:20.464Z,1.37
2018-06-13T20:15:55.172Z,3.70
2018-06-13T20:18:29.874Z,0.90
2018-06-13T20:20:59.935Z,1.40
2018-06-13T20:23:29.818Z,3.90
2018-06-13T20:26:04.630Z,0.80
2018-06-13T20:28:39.449Z,1.73
2018-06-13T20:31:17.795Z,1.67
2018-06-13T20:33:48.157Z,0.90
2018-06-13T20:36:18.575Z,3.83
2018-06-13T20:38:49.801Z,1.23
2018-06-13T20:41:19.597Z,3.60
2018-06-13T20:43:50.884Z,5.43
2018-06-13T20:46:21.849Z,3.33
2018-06-13T20:48:52.040Z,1.50
2018-06-13T20:51:22.734Z,6.50
2018-06-13T20:53:52.674Z,2.50
2018-06-13T20:56:23.156Z,3.20
2018-06-13T20:58:53.220Z,1.60
2018-06-13T21:01:23.054Z,1.60
2018-06-13T21:03:52.864Z,2.60
2018-06-13T21:06:22.628Z,1.77
2018-06-13T21:08:53.157Z,1.30
2018-06-13T21:11:23.243Z,3.00
2018-06-13T21:13:53.040Z,3.13
2018-06-13T21:16:23.721Z,2.80
2018-06-13T21:18:53.651Z,4.83
2018-06-13T21:21:24.608Z,3.53
2018-06-13T21:23:56.333Z,2.13
2018-06-13T21:26:28.705Z,2.60
2018-06-13T21:28:59.657Z,1.90
2018-06-13T21:31:35.689Z,4.67
2018-06-13T21:34:18.451Z,3.27
2018-06-13T21:36:49.272Z,2.23
2018-06-13T21:39:23.312Z,7.53
2018-06-13T21:41:53.959Z,1.80
2018-06-13T21:44:27.395Z,1.63
2018-06-13T21:47:04.083Z,4.60
2018-06-13T21:49:34.493Z,5.50
2018-06-13T21:52:05.894Z,2.60
2018-06-13T21:54:36.860Z,2.37
2018-06-13T21:57:07.429Z,1.80
2018-06-13T21:59:37.742Z,3.10
